createdAt,value
2017-11-22T00:00:40.171Z,976.18
2017-11-22T00:01:40.158Z,976.16
2017-11-22T00:02:40.146Z,976.16
2017-11-22T00:03:40.152Z,976.15
2017-11-22T00:04:40.132Z,976.15
2017-11-22T00:05:40.135Z,976.16
2017-11-22T00:06:40.135Z,976.12
2017-11-22T00:07:40.131Z,976.10
2017-11-22T00:08:40.130Z,976.14
2017-11-22T00:09:40.121Z,976.18
2017-11-22T00:10:40.121Z,976.19
2017-11-22T00:11:40.114Z,976.13
2017-11-22T00:12:40.116Z,976.15
2017-11-22T00:13:40.118Z,976.12
2017-11-22T00:14:40.105Z,976.16
2017-11-22T00:15:40.098Z,976.17
2017-11-22T00:16:40.099Z,976.14
2017-11-22T00:17:40.098Z,976.16
2017-11-22T00:18:40.092Z,976.12
2017-11-22T00:19:40.089Z,976.13
2017-11-22T00:20:40.088Z,976.09
2017-11-22T00:21:40.082Z,976.09
2017-11-22T00:22:40.083Z,976.10
2017-11-22T00:23:40.081Z,976.12
2017-11-22T00:24:40.076Z,976.12
2017-11-22T00:25:40.066Z,976.12
2017-11-22T00:26:40.071Z,976.12
2017-11-22T00:27:40.063Z,976.17
2017-11-22T00:28:40.061Z,976.17
2017-11-22T00:29:40.059Z,976.14
2017-11-22T00:30:40.055Z,976.15
2017-11-22T00:31:40.054Z,976.07
2017-11-22T00:32:40.050Z,976.07
2017-11-22T00:33:40.047Z,975.99
2017-11-22T00:34:40.042Z,976.07
2017-11-22T00:35:40.044Z,976.06
2017-11-22T00:36:40.037Z,976.04
2017-11-22T00:37:40.054Z,976.04
2017-11-22T00:38:40.031Z,976.03
2017-11-22T00:39:40.031Z,975.95
2017-11-22T00:40:40.048Z,975.99
2017-11-22T00:41:40.021Z,975.98
2017-11-22T00:42:40.020Z,976.00
2017-11-22T00:43:40.019Z,976.06
2017-11-22T00:44:40.015Z,976.02
2017-11-22T00:45:40.010Z,976.08
2017-11-22T00:46:40.009Z,976.07
2017-11-22T00:47:40.007Z,976.06
2017-11-22T00:48:40.006Z,976.12
2017-11-22T00:49:39.998Z,976.04
2017-11-22T00:50:39.994Z,976.14
2017-11-22T00:51:39.993Z,976.12
2017-11-22T00:52:39.985Z,976.09
2017-11-22T00:53:39.986Z,976.09
2017-11-22T00:54:39.983Z,976.02
2017-11-22T00:55:39.978Z,976.11
2017-11-22T00:56:39.982Z,976.06
2017-11-22T00:57:39.972Z,976.05
2017-11-22T00:58:39.970Z,976.05
2017-11-22T00:59:39.965Z,975.96
2017-11-22T01:00:39.966Z,976.02
2017-11-22T01:01:39.960Z,975.97
2017-11-22T01:02:39.957Z,976.00
2017-11-22T01:03:39.956Z,975.92
2017-11-22T01:04:39.951Z,976.06
2017-11-22T01:05:39.948Z,976.09
2017-11-22T01:06:39.941Z,976.09
2017-11-22T01:07:39.943Z,976.17
2017-11-22T01:08:39.937Z,976.17
2017-11-22T01:09:39.931Z,976.17
2017-11-22T01:10:39.936Z,976.16
2017-11-22T01:11:39.923Z,976.21
2017-11-22T01:12:39.925Z,976.12
2017-11-22T01:13:39.925Z,976.16
2017-11-22T01:14:39.920Z,976.09
2017-11-22T01:15:39.920Z,976.08
2017-11-22T01:16:39.915Z,976.05
2017-11-22T01:17:39.908Z,976.07
2017-11-22T01:18:39.909Z,976.08
2017-11-22T01:19:39.910Z,976.02
2017-11-22T01:20:39.900Z,976.09
2017-11-22T01:21:39.900Z,976.13
2017-11-22T01:22:39.918Z,976.16
2017-11-22T01:23:39.903Z,976.14
2017-11-22T01:24:39.888Z,976.16
2017-11-22T01:25:39.886Z,976.16
2017-11-22T01:26:39.914Z,976.10
2017-11-22T01:27:39.881Z,976.06
2017-11-22T01:28:39.876Z,976.10
2017-11-22T01:29:39.869Z,976.11
2017-11-22T01:30:39.874Z,976.10
2017-11-22T01:31:39.867Z,976.16
2017-11-22T01:32:39.861Z,976.12
2017-11-22T01:33:39.859Z,976.17
2017-11-22T01:34:39.858Z,976.14
2017-11-22T01:35:39.856Z,976.15
2017-11-22T01:36:39.877Z,976.12
2017-11-22T01:37:39.848Z,976.09
2017-11-22T01:38:39.847Z,976.16
2017-11-22T01:39:39.846Z,976.13
2017-11-22T01:40:39.839Z,976.17
2017-11-22T01:41:39.836Z,976.12
2017-11-22T01:42:39.833Z,976.09
2017-11-22T01:43:39.835Z,976.09
2017-11-22T01:44:39.828Z,976.08
2017-11-22T01:45:39.821Z,976.00
2017-11-22T01:46:39.821Z,976.05
2017-11-22T01:47:39.816Z,976.05
2017-11-22T01:48:39.809Z,976.11
2017-11-22T01:49:39.809Z,976.09
2017-11-22T01:50:39.809Z,976.08
2017-11-22T01:51:39.805Z,976.11
2017-11-22T01:52:39.799Z,976.10
2017-11-22T01:53:39.802Z,976.06
2017-11-22T01:54:39.796Z,976.07
2017-11-22T01:55:39.791Z,976.12
2017-11-22T01:56:39.787Z,976.07
2017-11-22T01:57:39.787Z,976.03
2017-11-22T01:58:39.783Z,976.15
2017-11-22T01:59:39.792Z,976.09
2017-11-22T02:00:39.772Z,976.08
2017-11-22T02:01:39.773Z,976.08
2017-11-22T02:02:39.768Z,976.09
2017-11-22T02:03:39.766Z,976.17
2017-11-22T02:04:39.770Z,976.09
2017-11-22T02:05:39.763Z,976.16
2017-11-22T02:06:39.758Z,976.16
2017-11-22T02:07:39.754Z,976.17
2017-11-22T02:08:39.749Z,976.17
2017-11-22T02:09:39.745Z,976.17
2017-11-22T02:10:39.740Z,976.17
2017-11-22T02:11:39.747Z,976.20
2017-11-22T02:12:39.740Z,976.19
2017-11-22T02:13:39.737Z,976.12
2017-11-22T02:14:39.735Z,976.15
2017-11-22T02:15:39.727Z,976.04
2017-11-22T02:16:39.727Z,976.06
2017-11-22T02:17:39.722Z,976.06
2017-11-22T02:18:39.720Z,976.05
2017-11-22T02:19:39.714Z,976.07
2017-11-22T02:20:39.709Z,976.06
2017-11-22T02:21:39.710Z,976.01
2017-11-22T02:22:39.703Z,976.00
2017-11-22T02:23:39.706Z,976.05
2017-11-22T02:24:39.699Z,975.97
2017-11-22T02:25:39.710Z,976.04
2017-11-22T02:26:39.698Z,976.03
2017-11-22T02:27:39.687Z,975.97
2017-11-22T02:28:39.683Z,975.95
2017-11-22T02:29:39.684Z,975.91
2017-11-22T02:30:39.679Z,975.89
2017-11-22T02:31:39.677Z,975.91
2017-11-22T02:32:39.680Z,975.90
2017-11-22T02:33:39.673Z,975.86
2017-11-22T02:34:39.667Z,975.96
2017-11-22T02:35:39.664Z,976.01
2017-11-22T02:36:39.660Z,976.09
2017-11-22T02:37:39.664Z,976.09
2017-11-22T02:38:39.650Z,976.08
2017-11-22T02:39:39.650Z,976.10
2017-11-22T02:40:39.653Z,976.12
2017-11-22T02:41:39.650Z,976.07
2017-11-22T02:42:39.644Z,976.10
2017-11-22T02:43:39.637Z,976.08
2017-11-22T02:44:39.635Z,976.08
2017-11-22T02:45:39.628Z,976.06
2017-11-22T02:46:39.626Z,976.04
2017-11-22T02:47:39.619Z,976.01
2017-11-22T02:48:39.642Z,976.05
2017-11-22T02:49:39.614Z,976.00
2017-11-22T02:50:39.614Z,975.98
2017-11-22T02:51:39.612Z,975.94
2017-11-22T02:52:39.607Z,975.88
2017-11-22T02:53:39.605Z,975.92
2017-11-22T02:54:39.603Z,975.92
2017-11-22T02:55:39.602Z,975.86
2017-11-22T02:56:39.597Z,975.88
2017-11-22T02:57:39.592Z,975.84
2017-11-22T02:58:39.588Z,975.82
2017-11-22T02:59:39.585Z,975.91
2017-11-22T03:00:39.581Z,975.87
2017-11-22T03:01:39.573Z,975.89
2017-11-22T03:02:39.578Z,975.97
2017-11-22T03:03:39.596Z,975.97
2017-11-22T03:04:39.579Z,975.91
2017-11-22T03:05:39.563Z,975.97
2017-11-22T03:06:39.564Z,975.94
2017-11-22T03:07:39.555Z,975.99
2017-11-22T03:08:39.553Z,975.99
2017-11-22T03:09:39.548Z,975.95
2017-11-22T03:10:39.547Z,975.92
2017-11-22T03:11:39.543Z,975.93
2017-11-22T03:12:39.542Z,975.96
2017-11-22T03:13:39.539Z,975.95
2017-11-22T03:14:39.533Z,975.97
2017-11-22T03:15:39.533Z,975.89
2017-11-22T03:16:39.531Z,975.89
2017-11-22T03:17:39.526Z,975.89
2017-11-22T03:18:39.520Z,975.84
2017-11-22T03:19:39.518Z,975.84
2017-11-22T03:20:39.514Z,975.87
2017-11-22T03:21:39.511Z,975.87
2017-11-22T03:22:39.516Z,975.85
2017-11-22T03:23:39.544Z,975.85
2017-11-22T03:24:39.506Z,975.84
2017-11-22T03:25:39.496Z,975.82
2017-11-22T03:26:39.495Z,975.76
2017-11-22T03:27:39.493Z,975.79
2017-11-22T03:28:39.490Z,975.78
2017-11-22T03:29:39.482Z,975.80
2017-11-22T03:30:39.489Z,975.79
2017-11-22T03:31:39.477Z,975.81
2017-11-22T03:32:39.470Z,975.86
2017-11-22T03:33:39.469Z,975.84
2017-11-22T03:34:39.483Z,975.79
2017-11-22T03:35:39.482Z,975.83
2017-11-22T03:36:39.459Z,975.79
2017-11-22T03:37:39.458Z,975.81
2017-11-22T03:38:39.456Z,975.82
2017-11-22T03:39:39.449Z,975.81
2017-11-22T03:40:39.442Z,975.75
2017-11-22T03:41:39.445Z,975.81
2017-11-22T03:42:39.442Z,975.81
2017-11-22T03:43:39.442Z,975.75
2017-11-22T03:44:39.439Z,975.71
2017-11-22T03:45:39.431Z,975.74
2017-11-22T03:46:39.427Z,975.74
2017-11-22T03:47:39.427Z,975.74
2017-11-22T03:48:39.416Z,975.75
2017-11-22T03:49:39.417Z,975.70
2017-11-22T03:50:39.413Z,975.66
2017-11-22T03:51:39.415Z,975.69
2017-11-22T03:52:39.409Z,975.71
2017-11-22T03:53:39.402Z,975.76
2017-11-22T03:54:39.403Z,975.73
2017-11-22T03:55:39.397Z,975.75
2017-11-22T03:56:39.393Z,975.76
2017-11-22T03:57:39.396Z,975.80
2017-11-22T03:58:39.386Z,975.75
2017-11-22T03:59:39.383Z,975.71
2017-11-22T04:00:39.379Z,975.73
2017-11-22T04:01:39.378Z,975.65
2017-11-22T04:02:39.377Z,975.62
2017-11-22T04:03:39.370Z,975.58
2017-11-22T04:04:39.373Z,975.56
2017-11-22T04:05:39.362Z,975.58
2017-11-22T04:06:39.361Z,975.57
2017-11-22T04:07:39.362Z,975.58
2017-11-22T04:08:39.357Z,975.61
2017-11-22T04:09:39.351Z,975.66
2017-11-22T04:10:39.342Z,975.68
2017-11-22T04:11:39.342Z,975.67
2017-11-22T04:12:39.337Z,975.73
2017-11-22T04:13:39.336Z,975.73
2017-11-22T04:14:39.331Z,975.68
2017-11-22T04:15:39.332Z,975.66
2017-11-22T04:16:39.328Z,975.66
2017-11-22T04:17:39.322Z,975.66
2017-11-22T04:18:39.318Z,975.64
2017-11-22T04:19:39.318Z,975.70
2017-11-22T04:20:39.310Z,975.71
2017-11-22T04:21:39.311Z,975.73
2017-11-22T04:22:39.306Z,975.71
2017-11-22T04:23:39.301Z,975.65
2017-11-22T04:24:39.301Z,975.71
2017-11-22T04:25:39.294Z,975.78
2017-11-22T04:26:39.289Z,975.68
2017-11-22T04:27:39.287Z,975.70
2017-11-22T04:28:39.281Z,975.67
2017-11-22T04:29:39.288Z,975.64
2017-11-22T04:30:39.277Z,975.66
2017-11-22T04:31:39.272Z,975.64
2017-11-22T04:32:39.268Z,975.64
2017-11-22T04:33:39.266Z,975.66
2017-11-22T04:34:39.264Z,975.65
2017-11-22T04:35:39.261Z,975.57
2017-11-22T04:36:39.255Z,975.46
2017-11-22T04:37:39.258Z,975.51
2017-11-22T04:38:39.250Z,975.44
2017-11-22T04:39:39.251Z,975.44
2017-11-22T04:40:39.243Z,975.45
2017-11-22T04:41:39.238Z,975.36
2017-11-22T04:42:39.236Z,975.38
2017-11-22T04:43:39.230Z,975.42
2017-11-22T04:44:39.230Z,975.32
2017-11-22T04:45:39.224Z,975.34
2017-11-22T04:46:39.222Z,975.38
2017-11-22T04:47:39.224Z,975.39
2017-11-22T04:48:39.212Z,975.36
2017-11-22T04:49:39.219Z,975.37
2017-11-22T04:50:39.206Z,975.49
2017-11-22T04:51:39.203Z,975.40
2017-11-22T04:52:39.197Z,975.41
2017-11-22T04:53:39.197Z,975.50
2017-11-22T04:54:39.194Z,975.42
2017-11-22T04:55:39.190Z,975.31
2017-11-22T04:56:39.187Z,975.39
2017-11-22T04:57:39.183Z,975.43
2017-11-22T04:58:39.179Z,975.28
2017-11-22T04:59:39.199Z,975.25
2017-11-22T05:00:39.171Z,975.18
2017-11-22T05:01:39.167Z,975.18
2017-11-22T05:02:39.163Z,975.26
2017-11-22T05:03:39.161Z,975.28
2017-11-22T05:04:39.159Z,975.23
2017-11-22T05:05:39.154Z,975.23
2017-11-22T05:06:39.147Z,975.14
2017-11-22T05:07:39.142Z,975.17
2017-11-22T05:08:39.146Z,975.24
2017-11-22T05:09:39.140Z,975.18
2017-11-22T05:10:39.132Z,975.19
2017-11-22T05:11:39.139Z,975.22
2017-11-22T05:12:39.129Z,975.22
2017-11-22T05:13:39.150Z,975.20
2017-11-22T05:14:39.123Z,975.18
2017-11-22T05:15:39.116Z,975.19
2017-11-22T05:16:39.115Z,975.23
2017-11-22T05:17:39.156Z,975.30
2017-11-22T05:18:39.105Z,975.29
2017-11-22T05:19:39.105Z,975.34
2017-11-22T05:20:39.095Z,975.36
2017-11-22T05:21:39.097Z,975.29
2017-11-22T05:22:39.089Z,975.26
2017-11-22T05:23:39.085Z,975.23
2017-11-22T05:24:39.088Z,975.21
2017-11-22T05:25:39.079Z,975.18
2017-11-22T05:26:39.070Z,975.25
2017-11-22T05:27:39.077Z,975.25
2017-11-22T05:28:39.068Z,975.28
2017-11-22T05:29:39.066Z,975.27
2017-11-22T05:30:39.071Z,975.25
2017-11-22T05:31:39.060Z,975.30
2017-11-22T05:32:39.057Z,975.29
2017-11-22T05:33:39.130Z,975.26
2017-11-22T05:34:39.050Z,975.24
2017-11-22T05:35:39.049Z,975.25
2017-11-22T05:36:39.041Z,975.24
2017-11-22T05:37:39.042Z,975.27
2017-11-22T05:38:39.034Z,975.26
2017-11-22T05:39:39.032Z,975.23
2017-11-22T05:40:39.029Z,975.29
2017-11-22T05:41:39.023Z,975.37
2017-11-22T05:42:39.028Z,975.28
2017-11-22T05:43:39.017Z,975.39
2017-11-22T05:44:39.012Z,975.39
2017-11-22T05:45:39.013Z,975.35
2017-11-22T05:46:39.001Z,975.35
2017-11-22T05:47:39.004Z,975.39
2017-11-22T05:48:38.998Z,975.32
2017-11-22T05:49:38.992Z,975.37
2017-11-22T05:50:38.989Z,975.36
2017-11-22T05:51:39.000Z,975.41
2017-11-22T05:52:38.986Z,975.40
2017-11-22T05:53:38.979Z,975.38
2017-11-22T05:54:38.976Z,975.39
2017-11-22T05:55:38.972Z,975.38
2017-11-22T05:56:38.970Z,975.39
2017-11-22T05:57:38.966Z,975.30
2017-11-22T05:58:38.963Z,975.30
2017-11-22T05:59:38.961Z,975.36
2017-11-22T06:00:38.955Z,975.26
2017-11-22T06:01:38.969Z,975.23
2017-11-22T06:02:38.947Z,975.20
2017-11-22T06:03:38.944Z,975.23
2017-11-22T06:04:38.939Z,975.19
2017-11-22T06:05:38.937Z,975.27
2017-11-22T06:06:38.935Z,975.15
2017-11-22T06:07:38.931Z,975.24
2017-11-22T06:08:38.932Z,975.16
2017-11-22T06:09:38.923Z,975.16
2017-11-22T06:10:38.918Z,975.17
2017-11-22T06:11:38.912Z,975.14
2017-11-22T06:12:38.921Z,975.14
2017-11-22T06:13:38.909Z,975.14
2017-11-22T06:14:38.907Z,975.19
2017-11-22T06:15:38.904Z,975.14
2017-11-22T06:16:38.903Z,975.13
2017-11-22T06:17:38.894Z,975.26
2017-11-22T06:18:38.893Z,975.32
2017-11-22T06:19:38.887Z,975.35
2017-11-22T06:20:38.881Z,975.40
2017-11-22T06:21:38.882Z,975.44
2017-11-22T06:22:38.877Z,975.42
2017-11-22T06:23:38.873Z,975.40
2017-11-22T06:24:38.867Z,975.41
2017-11-22T06:25:38.866Z,975.37
2017-11-22T06:26:38.864Z,975.42
2017-11-22T06:27:38.861Z,975.41
2017-11-22T06:28:38.856Z,975.30
2017-11-22T06:29:38.849Z,975.32
2017-11-22T06:30:38.848Z,975.36
2017-11-22T06:31:38.848Z,975.36
2017-11-22T06:32:38.843Z,975.42
2017-11-22T06:33:38.871Z,975.41
2017-11-22T06:34:38.844Z,975.49
2017-11-22T06:35:38.841Z,975.48
2017-11-22T06:36:38.824Z,975.43
2017-11-22T06:37:38.821Z,975.55
2017-11-22T06:38:38.821Z,975.55
2017-11-22T06:39:38.816Z,975.53
2017-11-22T06:40:38.809Z,975.57
2017-11-22T06:41:38.811Z,975.66
2017-11-22T06:42:38.801Z,975.57
2017-11-22T06:43:38.801Z,975.54
2017-11-22T06:44:38.797Z,975.53
2017-11-22T06:45:38.796Z,975.48
2017-11-22T06:46:38.788Z,975.53
2017-11-22T06:47:38.795Z,975.58
2017-11-22T06:48:38.780Z,975.56
2017-11-22T06:49:38.778Z,975.56
2017-11-22T06:50:38.775Z,975.60
2017-11-22T06:51:38.768Z,975.56
2017-11-22T06:52:38.766Z,975.57
2017-11-22T06:53:38.764Z,975.56
2017-11-22T06:54:38.760Z,975.62
2017-11-22T06:55:38.770Z,975.64
2017-11-22T06:56:38.752Z,975.66
2017-11-22T06:57:38.749Z,975.62
2017-11-22T06:58:38.745Z,975.62
2017-11-22T06:59:38.743Z,975.54
2017-11-22T07:00:38.740Z,975.47
2017-11-22T07:01:38.732Z,975.44
2017-11-22T07:02:38.732Z,975.40
2017-11-22T07:03:38.729Z,975.42
2017-11-22T07:04:38.725Z,975.38
2017-11-22T07:05:38.735Z,975.38
2017-11-22T07:06:38.721Z,975.33
2017-11-22T07:07:38.711Z,975.34
2017-11-22T07:08:38.706Z,975.37
2017-11-22T07:09:38.703Z,975.42
2017-11-22T07:10:38.705Z,975.56
2017-11-22T07:11:38.697Z,975.45
2017-11-22T07:12:38.704Z,975.51
2017-11-22T07:13:38.695Z,975.53
2017-11-22T07:14:38.687Z,975.53
2017-11-22T07:15:38.688Z,975.53
2017-11-22T07:16:38.682Z,975.58
2017-11-22T07:17:38.675Z,975.60
2017-11-22T07:18:38.677Z,975.67
2017-11-22T07:19:38.673Z,975.69
2017-11-22T07:20:38.665Z,975.72
2017-11-22T07:21:38.663Z,975.77
2017-11-22T07:22:38.660Z,975.79
2017-11-22T07:23:38.657Z,975.78
2017-11-22T07:24:38.659Z,975.75
2017-11-22T07:25:38.647Z,975.74
2017-11-22T07:26:38.648Z,975.81
2017-11-22T07:27:38.642Z,975.76
2017-11-22T07:28:38.640Z,975.89
2017-11-22T07:29:38.637Z,975.83
2017-11-22T07:30:38.634Z,975.88
2017-11-22T07:31:38.631Z,975.94
2017-11-22T07:32:38.627Z,975.86
2017-11-22T07:33:38.624Z,975.92
2017-11-22T07:34:38.619Z,975.90
2017-11-22T07:35:38.617Z,975.94
2017-11-22T07:36:38.643Z,975.90
2017-11-22T07:37:38.610Z,975.87
2017-11-22T07:38:38.613Z,975.86
2017-11-22T07:39:38.603Z,975.80
2017-11-22T07:40:38.600Z,975.83
2017-11-22T07:41:38.598Z,975.80
2017-11-22T07:42:38.594Z,975.86
2017-11-22T07:43:38.591Z,975.89
2017-11-22T07:44:38.589Z,976.02
2017-11-22T07:45:38.582Z,976.00
2017-11-22T07:46:38.580Z,976.02
2017-11-22T07:47:38.576Z,976.00
2017-11-22T07:48:38.575Z,975.97
2017-11-22T07:49:38.573Z,976.03
2017-11-22T07:50:38.568Z,976.10
2017-11-22T07:51:38.562Z,976.08
2017-11-22T07:52:38.557Z,976.14
2017-11-22T07:53:38.558Z,976.18
2017-11-22T07:54:38.559Z,976.14
2017-11-22T07:55:38.557Z,976.23
2017-11-22T07:56:38.550Z,976.29
2017-11-22T07:57:38.553Z,976.25
2017-11-22T07:58:38.543Z,976.22
2017-11-22T07:59:38.538Z,976.31
2017-11-22T08:00:38.529Z,976.31
2017-11-22T08:01:38.534Z,976.27
2017-11-22T08:02:38.527Z,976.33
2017-11-22T08:03:38.537Z,976.34
2017-11-22T08:04:38.524Z,976.30
2017-11-22T08:05:38.520Z,976.37
2017-11-22T08:06:38.518Z,976.32
2017-11-22T08:07:38.516Z,976.37
2017-11-22T08:08:38.512Z,976.40
2017-11-22T08:09:38.510Z,976.44
2017-11-22T08:10:38.500Z,976.45
2017-11-22T08:11:38.616Z,976.50
2017-11-22T08:12:38.501Z,976.45
2017-11-22T08:13:38.519Z,976.42
2017-11-22T08:14:38.493Z,976.43
2017-11-22T08:15:38.490Z,976.37
2017-11-22T08:16:38.489Z,976.40
2017-11-22T08:17:38.478Z,976.45
2017-11-22T08:18:38.477Z,976.39
2017-11-22T08:19:38.478Z,976.38
2017-11-22T08:20:38.472Z,976.36
2017-11-22T08:21:38.467Z,976.44
2017-11-22T08:22:38.474Z,976.43
2017-11-22T08:23:38.476Z,976.42
2017-11-22T08:24:38.460Z,976.42
2017-11-22T08:25:38.459Z,976.49
2017-11-22T08:26:38.459Z,976.43
2017-11-22T08:27:38.459Z,976.42
2017-11-22T08:28:38.449Z,976.40
2017-11-22T08:29:38.446Z,976.34
2017-11-22T08:30:38.487Z,976.30
2017-11-22T08:31:38.443Z,976.33
2017-11-22T08:32:38.437Z,976.37
2017-11-22T08:33:38.455Z,976.42
2017-11-22T08:34:38.433Z,976.44
2017-11-22T08:35:38.429Z,976.46
2017-11-22T08:36:38.429Z,976.51
2017-11-22T08:37:38.424Z,976.54
2017-11-22T08:38:38.436Z,976.55
2017-11-22T08:39:38.422Z,976.54
2017-11-22T08:40:38.416Z,976.58
2017-11-22T08:41:38.412Z,976.67
2017-11-22T08:42:38.415Z,976.66
2017-11-22T08:43:38.406Z,976.74
2017-11-22T08:44:38.401Z,976.68
2017-11-22T08:45:38.403Z,976.76
2017-11-22T08:46:38.399Z,976.73
2017-11-22T08:47:38.397Z,976.75
2017-11-22T08:48:38.389Z,976.75
2017-11-22T08:49:38.390Z,976.73
2017-11-22T08:50:38.390Z,976.74
2017-11-22T08:51:38.387Z,976.77
2017-11-22T08:52:38.380Z,976.78
2017-11-22T08:53:38.376Z,976.81
2017-11-22T08:54:38.382Z,976.87
2017-11-22T08:55:38.373Z,976.85
2017-11-22T08:56:38.385Z,976.87
2017-11-22T08:57:38.361Z,976.84
2017-11-22T08:58:38.363Z,976.91
2017-11-22T08:59:38.362Z,976.90
2017-11-22T09:00:38.367Z,976.92
2017-11-22T09:01:38.357Z,976.91
2017-11-22T09:02:38.350Z,976.90
2017-11-22T09:03:38.349Z,976.88
2017-11-22T09:04:38.345Z,976.86
2017-11-22T09:05:38.342Z,976.80
2017-11-22T09:06:38.349Z,976.75
2017-11-22T09:07:38.338Z,976.74
2017-11-22T09:08:38.377Z,976.72
2017-11-22T09:09:38.330Z,976.76
2017-11-22T09:10:38.325Z,976.80
2017-11-22T09:11:38.327Z,976.76
2017-11-22T09:12:38.323Z,976.77
2017-11-22T09:13:38.320Z,976.76
2017-11-22T09:14:38.317Z,976.81
2017-11-22T09:15:38.319Z,976.80
2017-11-22T09:16:38.317Z,976.86
2017-11-22T09:17:38.312Z,976.84
2017-11-22T09:18:38.301Z,976.86
2017-11-22T09:19:38.302Z,976.73
2017-11-22T09:20:38.318Z,976.80
2017-11-22T09:21:38.301Z,976.84
2017-11-22T09:22:38.293Z,976.81
2017-11-22T09:23:38.292Z,976.87
2017-11-22T09:24:38.288Z,976.91
2017-11-22T09:25:38.287Z,976.93
2017-11-22T09:26:38.286Z,976.97
2017-11-22T09:27:38.285Z,976.99
2017-11-22T09:28:38.277Z,977.01
2017-11-22T09:29:38.278Z,977.10
2017-11-22T09:30:38.274Z,977.04
2017-11-22T09:31:38.328Z,977.06
2017-11-22T09:32:38.273Z,977.08
2017-11-22T09:33:38.268Z,977.13
2017-11-22T09:34:38.262Z,977.17
2017-11-22T09:35:38.255Z,977.13
2017-11-22T09:36:38.258Z,977.12
2017-11-22T09:37:38.248Z,977.13
2017-11-22T09:38:38.253Z,977.12
2017-11-22T09:39:38.249Z,977.13
2017-11-22T09:40:38.247Z,977.13
2017-11-22T09:41:38.244Z,977.12
2017-11-22T09:42:38.236Z,977.13
2017-11-22T09:43:38.242Z,977.11
2017-11-22T09:44:38.237Z,977.13
2017-11-22T09:45:38.233Z,977.13
2017-11-22T09:46:38.234Z,977.12
2017-11-22T09:47:38.229Z,977.12
2017-11-22T09:48:38.223Z,977.06
2017-11-22T09:49:38.220Z,977.05
2017-11-22T09:50:38.229Z,977.00
2017-11-22T09:51:38.215Z,977.00
2017-11-22T09:52:38.213Z,977.04
2017-11-22T09:53:38.214Z,977.01
2017-11-22T09:54:38.221Z,976.98
2017-11-22T09:55:38.211Z,976.97
2017-11-22T09:56:38.223Z,977.03
2017-11-22T09:57:38.206Z,976.97
2017-11-22T09:58:38.201Z,977.01
2017-11-22T09:59:38.198Z,976.96
2017-11-22T10:00:38.217Z,976.95
2017-11-22T10:01:38.198Z,976.98
2017-11-22T10:02:38.194Z,976.95
2017-11-22T10:03:38.191Z,976.94
2017-11-22T10:04:38.183Z,976.95
2017-11-22T10:05:38.188Z,976.95
2017-11-22T10:06:38.182Z,976.94
2017-11-22T10:07:38.188Z,976.95
2017-11-22T10:08:38.180Z,976.97
2017-11-22T10:09:38.179Z,976.91
2017-11-22T10:10:38.194Z,976.91
2017-11-22T10:11:38.173Z,976.95
2017-11-22T10:12:38.196Z,976.90
2017-11-22T10:13:38.179Z,976.85
2017-11-22T10:14:38.165Z,976.79
2017-11-22T10:15:38.165Z,976.79
2017-11-22T10:16:38.165Z,976.78
2017-11-22T10:17:38.179Z,976.80
2017-11-22T10:18:38.158Z,976.78
2017-11-22T10:19:38.165Z,976.80
2017-11-22T10:20:38.167Z,976.82
2017-11-22T10:21:38.176Z,976.82
2017-11-22T10:22:38.194Z,976.82
2017-11-22T10:23:38.193Z,976.81
2017-11-22T10:24:38.165Z,976.84
2017-11-22T10:25:38.167Z,976.83
2017-11-22T10:26:38.171Z,976.80
2017-11-22T10:27:38.164Z,976.82
2017-11-22T10:28:38.151Z,976.84
2017-11-22T10:29:38.152Z,976.78
2017-11-22T10:30:38.151Z,976.67
2017-11-22T10:31:38.145Z,976.68
2017-11-22T10:32:38.144Z,976.70
2017-11-22T10:33:38.164Z,976.61
2017-11-22T10:34:38.166Z,976.68
2017-11-22T10:35:38.140Z,976.69
2017-11-22T10:36:38.137Z,976.64
2017-11-22T10:37:38.150Z,976.64
2017-11-22T10:38:38.131Z,976.65
2017-11-22T10:39:38.152Z,976.62
2017-11-22T10:40:38.136Z,976.61
2017-11-22T10:41:38.153Z,976.62
2017-11-22T10:42:38.130Z,976.55
2017-11-22T10:43:38.127Z,976.46
2017-11-22T10:44:38.180Z,976.50
2017-11-22T10:45:38.130Z,976.49
2017-11-22T10:46:38.131Z,976.52
2017-11-22T10:47:38.124Z,976.47
2017-11-22T10:48:38.136Z,976.48
2017-11-22T10:49:38.128Z,976.44
2017-11-22T10:50:38.125Z,976.48
2017-11-22T10:51:38.124Z,976.46
2017-11-22T10:52:38.127Z,976.48
2017-11-22T10:53:38.129Z,976.49
2017-11-22T10:54:38.152Z,976.53
2017-11-22T10:55:38.115Z,976.52
2017-11-22T10:56:38.112Z,976.53
2017-11-22T10:57:38.117Z,976.46
2017-11-22T10:58:38.115Z,976.50
2017-11-22T10:59:38.158Z,976.53
2017-11-22T11:00:38.116Z,976.53
2017-11-22T11:01:38.122Z,976.50
2017-11-22T11:02:38.115Z,976.50
2017-11-22T11:03:38.111Z,976.50
2017-11-22T11:04:38.107Z,976.52
2017-11-22T11:05:38.105Z,976.49
2017-11-22T11:06:38.121Z,976.52
2017-11-22T11:07:38.107Z,976.50
2017-11-22T11:08:38.106Z,976.48
2017-11-22T11:09:38.114Z,976.53
2017-11-22T11:10:38.110Z,976.42
2017-11-22T11:11:38.113Z,976.45
2017-11-22T11:12:38.106Z,976.43
2017-11-22T11:13:38.100Z,976.41
2017-11-22T11:14:38.113Z,976.40
2017-11-22T11:15:38.103Z,976.38
2017-11-22T11:16:38.108Z,976.32
2017-11-22T11:17:38.102Z,976.33
2017-11-22T11:18:38.106Z,976.34
2017-11-22T11:19:38.095Z,976.40
2017-11-22T11:20:38.091Z,976.36
2017-11-22T11:21:38.091Z,976.37
2017-11-22T11:22:38.092Z,976.41
2017-11-22T11:23:38.097Z,976.41
2017-11-22T11:24:38.093Z,976.44
2017-11-22T11:25:38.091Z,976.40
2017-11-22T11:26:38.095Z,976.38
2017-11-22T11:27:38.090Z,976.32
2017-11-22T11:28:38.216Z,976.29
2017-11-22T11:29:38.086Z,976.30
2017-11-22T11:30:38.086Z,976.31
2017-11-22T11:31:38.096Z,976.32
2017-11-22T11:32:38.144Z,976.35
2017-11-22T11:33:38.092Z,976.33
2017-11-22T11:34:38.098Z,976.34
2017-11-22T11:35:38.093Z,976.36
2017-11-22T11:36:38.100Z,976.30
2017-11-22T11:37:38.092Z,976.37
2017-11-22T11:38:38.078Z,976.32
2017-11-22T11:39:38.082Z,976.35
2017-11-22T11:40:38.078Z,976.31
2017-11-22T11:41:38.074Z,976.30
2017-11-22T11:42:38.071Z,976.26
2017-11-22T11:43:38.078Z,976.26
2017-11-22T11:44:38.094Z,976.33
2017-11-22T11:45:38.077Z,976.29
2017-11-22T11:46:38.079Z,976.31
2017-11-22T11:47:38.066Z,976.32
2017-11-22T11:48:38.072Z,976.32
2017-11-22T11:49:38.071Z,976.32
2017-11-22T11:50:38.073Z,976.26
2017-11-22T11:51:38.070Z,976.29
2017-11-22T11:52:38.062Z,976.31
2017-11-22T11:53:38.073Z,976.30
2017-11-22T11:54:38.068Z,976.24
2017-11-22T11:55:38.069Z,976.36
2017-11-22T11:56:38.069Z,976.29
2017-11-22T11:57:38.092Z,976.34
2017-11-22T11:58:38.065Z,976.34
2017-11-22T11:59:38.062Z,976.37
2017-11-22T12:00:38.058Z,976.33
2017-11-22T12:01:38.061Z,976.29
2017-11-22T12:02:38.058Z,976.32
2017-11-22T12:03:38.060Z,976.31
2017-11-22T12:04:38.059Z,976.32
2017-11-22T12:05:38.234Z,976.30
2017-11-22T12:06:38.067Z,976.28
2017-11-22T12:07:38.077Z,976.22
2017-11-22T12:08:38.071Z,976.25
2017-11-22T12:09:38.072Z,976.21
2017-11-22T12:10:38.059Z,976.24
2017-11-22T12:11:38.054Z,976.24
2017-11-22T12:12:38.068Z,976.18
2017-11-22T12:13:38.074Z,976.20
2017-11-22T12:14:38.072Z,976.18
2017-11-22T12:15:38.053Z,976.17
2017-11-22T12:16:38.057Z,976.09
2017-11-22T12:17:38.062Z,976.18
2017-11-22T12:18:38.051Z,976.14
2017-11-22T12:19:38.067Z,976.20
2017-11-22T12:20:38.045Z,976.15
2017-11-22T12:21:38.051Z,976.21
2017-11-22T12:22:38.043Z,976.18
2017-11-22T12:23:38.089Z,976.15
2017-11-22T12:24:38.054Z,976.15
2017-11-22T12:25:38.053Z,976.15
2017-11-22T12:26:38.056Z,976.20
2017-11-22T12:27:38.041Z,976.18
2017-11-22T12:28:38.035Z,976.18